PWSweather.com
Personal Weather Stations
Station Observations
ASHURSTBR1
New Forest, TottonGB SO40 7EA

New ForestTottonGB SO40 7EA

Lat: 50.9097024, Lon: -1.5111684999999397

Elevation: 27

Station Type: Davis VP2 Plus

Latest ConditionsUpdated 7:15:00 PM GMT Tuesday, Nov 12, 2019
Currently Today's Max Today's Min Today's Average
Temperature 45.5°F7.5°C 49.9°F9.9°C 36.4°F2.4°C 42.6°F5.9°C
Dew Point 40.9°F4.9°C 41.1°F5.1°C 33.2°F0.7°C 37.2°F2.9°C
Winds 4.0 mph WSW6.4 kmh WSW 7.0 mph -11.3 kmh - - 3.0 mph 4.8 kmh
Wind Gusts 11.0 mph17.7 kmh 21.0 mph33.8 kmh - -
Humidity 84% 90% 65% 81%
Pressure 29.52 in999.7 mb 29.58 in1001.7 mb 29.46 in997.6 mb -
Hour Temp Dew Point Humidity Winds Wind Gusts Pressure Precip Precip Rate Daily Precip Total
07:15 PM 45.5°F7.5°C 40.9°F4.9°C 84% 4.0 mph WSW6.4 kmh WSW 11.0 mph17.7 kmh 29.52 in999.7 mb 0.00 in0.0 mm 0.00 in0.0 mm 0.00 in0.0 mm
07:00 PM 45.1°F7.3°C 40.2°F4.6°C 83% 2.0 mph WSW3.2 kmh WSW 10.0 mph16.1 kmh 29.51 in999.3 mb 0.00 in0.0 mm 0.00 in0.0 mm 0.00 in0.0 mm
06:45 PM 45.2°F7.3°C 40.3°F4.6°C 83% 3.0 mph WSW4.8 kmh WSW 9.0 mph14.5 kmh 29.51 in999.3 mb 0.00 in0.0 mm 0.00 in0.0 mm 0.00 in0.0 mm
06:30 PM 45.6°F7.6°C 40.4°F4.7°C 82% 3.0 mph W4.8 kmh W 12.0 mph19.3 kmh 29.50 in999.0 mb 0.00 in0.0 mm 0.00 in0.0 mm 0.00 in0.0 mm
06:15 PM 46.2°F7.9°C 40.7°F4.8°C 81% 3.0 mph W4.8 kmh W 9.0 mph14.5 kmh 29.50 in999.0 mb 0.00 in0.0 mm 0.00 in0.0 mm 0.00 in0.0 mm
06:00 PM 46.9°F8.3°C 41.1°F5.1°C 80% 3.0 mph W4.8 kmh W 10.0 mph16.1 kmh 29.50 in999.0 mb 0.00 in0.0 mm 0.00 in0.0 mm 0.00 in0.0 mm
05:45 PM 47.2°F8.4°C 41.0°F5.0°C 79% 4.0 mph WSW6.4 kmh WSW 11.0 mph17.7 kmh 29.49 in998.6 mb 0.00 in0.0 mm 0.00 in0.0 mm 0.00 in0.0 mm
05:30 PM 47.2°F8.4°C 41.0°F5.0°C 79% 4.0 mph WSW6.4 kmh WSW 11.0 mph17.7 kmh 29.49 in998.6 mb 0.00 in0.0 mm 0.00 in0.0 mm 0.00 in0.0 mm
05:15 PM 47.5°F8.6°C 41.0°F5.0°C 78% 4.0 mph W6.4 kmh W 11.0 mph17.7 kmh 29.48 in998.3 mb 0.00 in0.0 mm 0.00 in0.0 mm 0.00 in0.0 mm
05:00 PM 47.5°F8.6°C 41.0°F5.0°C 78% 4.0 mph W6.4 kmh W 14.0 mph22.5 kmh 29.48 in998.3 mb 0.00 in0.0 mm 0.00 in0.0 mm 0.00 in0.0 mm
04:45 PM 47.6°F8.7°C 40.7°F4.8°C 77% 5.0 mph WSW8.0 kmh WSW 20.0 mph32.2 kmh 29.48 in998.3 mb 0.00 in0.0 mm 0.00 in0.0 mm 0.00 in0.0 mm
04:30 PM 47.5°F8.6°C 40.6°F4.8°C 77% 4.0 mph W6.4 kmh W 15.0 mph24.1 kmh 29.48 in998.3 mb 0.00 in0.0 mm 0.00 in0.0 mm 0.00 in0.0 mm
04:15 PM 47.2°F8.4°C 40.7°F4.8°C 78% 4.0 mph W6.4 kmh W 13.0 mph20.9 kmh 29.48 in998.3 mb 0.00 in0.0 mm 0.00 in0.0 mm 0.00 in0.0 mm
04:00 PM 46.7°F8.2°C 40.5°F4.7°C 79% 3.0 mph W4.8 kmh W 11.0 mph17.7 kmh 29.47 in998.0 mb 0.00 in0.0 mm 0.00 in0.0 mm 0.00 in0.0 mm
03:45 PM 46.5°F8.1°C 40.3°F4.6°C 79% 4.0 mph WSW6.4 kmh WSW 14.0 mph22.5 kmh 29.47 in998.0 mb 0.00 in0.0 mm 0.00 in0.0 mm 0.00 in0.0 mm
03:30 PM 46.4°F8.0°C 40.2°F4.6°C 79% 5.0 mph WSW8.0 kmh WSW 17.0 mph27.4 kmh 29.46 in997.6 mb 0.00 in0.0 mm 0.00 in0.0 mm 0.00 in0.0 mm
03:15 PM 46.2°F7.9°C 40.0°F4.4°C 79% 4.0 mph SW6.4 kmh SW 14.0 mph22.5 kmh 29.46 in997.6 mb 0.00 in0.0 mm 0.00 in0.0 mm 0.00 in0.0 mm
03:00 PM 46.2°F7.9°C 39.7°F4.3°C 78% 4.0 mph SW6.4 kmh SW 12.0 mph19.3 kmh 29.47 in998.0 mb 0.00 in0.0 mm 0.00 in0.0 mm 0.00 in0.0 mm
02:45 PM 46.2°F7.9°C 39.7°F4.3°C 78% 6.0 mph WSW9.7 kmh WSW 21.0 mph33.8 kmh 29.46 in997.6 mb 0.00 in0.0 mm 0.00 in0.0 mm 0.00 in0.0 mm
02:30 PM 46.0°F7.8°C 39.5°F4.2°C 78% 6.0 mph WSW9.7 kmh WSW 17.0 mph27.4 kmh 29.47 in998.0 mb 0.00 in0.0 mm 0.00 in0.0 mm 0.00 in0.0 mm
02:15 PM 46.1°F7.8°C 39.6°F4.2°C 78% 5.0 mph WSW8.0 kmh WSW 14.0 mph22.5 kmh 29.47 in998.0 mb 0.00 in0.0 mm 0.00 in0.0 mm 0.00 in0.0 mm
02:00 PM 46.5°F8.1°C 39.3°F4.1°C 76% 6.0 mph WSW9.7 kmh WSW 19.0 mph30.6 kmh 29.47 in998.0 mb 0.00 in0.0 mm 0.00 in0.0 mm 0.00 in0.0 mm
01:45 PM 47.2°F8.4°C 39.3°F4.1°C 74% 7.0 mph WSW11.3 kmh WSW 19.0 mph30.6 kmh 29.47 in998.0 mb 0.00 in0.0 mm 0.00 in0.0 mm 0.00 in0.0 mm
01:30 PM 47.7°F8.7°C 38.8°F3.8°C 71% 5.0 mph WSW8.0 kmh WSW 17.0 mph27.4 kmh 29.47 in998.0 mb 0.00 in0.0 mm 0.00 in0.0 mm 0.00 in0.0 mm
01:15 PM 48.4°F9.1°C 38.7°F3.7°C 69% 6.0 mph W9.7 kmh W 19.0 mph30.6 kmh 29.48 in998.3 mb 0.00 in0.0 mm 0.00 in0.0 mm 0.00 in0.0 mm
01:00 PM 49.3°F9.6°C 38.4°F3.6°C 66% 5.0 mph WSW8.0 kmh WSW 18.0 mph29.0 kmh 29.48 in998.3 mb 0.00 in0.0 mm 0.00 in0.0 mm 0.00 in0.0 mm
12:30 PM 49.9°F9.9°C 39.0°F3.9°C 66% 7.0 mph WSW11.3 kmh WSW 16.0 mph25.7 kmh 29.48 in998.3 mb 0.00 in0.0 mm 0.00 in0.0 mm 0.00 in0.0 mm
12:15 PM 49.4°F9.7°C 38.1°F3.4°C 65% 7.0 mph WSW11.3 kmh WSW 17.0 mph27.4 kmh 29.49 in998.6 mb 0.00 in0.0 mm 0.00 in0.0 mm 0.00 in0.0 mm
12:00 PM 48.8°F9.3°C 37.9°F3.3°C 66% 7.0 mph WSW11.3 kmh WSW 19.0 mph30.6 kmh 29.49 in998.6 mb 0.00 in0.0 mm 0.00 in0.0 mm 0.00 in0.0 mm
11:30 AM 48.6°F9.2°C 38.9°F3.8°C 69% 5.0 mph WSW8.0 kmh WSW 14.0 mph22.5 kmh 29.50 in999.0 mb 0.00 in0.0 mm 0.00 in0.0 mm 0.00 in0.0 mm
11:15 AM 47.7°F8.7°C 38.4°F3.6°C 70% 6.0 mph WSW9.7 kmh WSW 14.0 mph22.5 kmh 29.50 in999.0 mb 0.00 in0.0 mm 0.00 in0.0 mm 0.00 in0.0 mm
10:45 AM 46.3°F7.9°C 38.8°F3.8°C 75% 2.0 mph SW3.2 kmh SW 12.0 mph19.3 kmh 29.52 in999.7 mb 0.00 in0.0 mm 0.00 in0.0 mm 0.00 in0.0 mm
10:30 AM 45.6°F7.6°C 38.1°F3.4°C 75% 3.0 mph SW4.8 kmh SW 12.0 mph19.3 kmh 29.52 in999.7 mb 0.00 in0.0 mm 0.00 in0.0 mm 0.00 in0.0 mm
10:15 AM 44.6°F7.0°C 37.8°F3.2°C 77% 3.0 mph SW4.8 kmh SW 9.0 mph14.5 kmh 29.52 in999.7 mb 0.00 in0.0 mm 0.00 in0.0 mm 0.00 in0.0 mm
09:45 AM 42.3°F5.7°C 36.9°F2.7°C 81% 3.0 mph SW4.8 kmh SW 12.0 mph19.3 kmh 29.52 in999.7 mb 0.00 in0.0 mm 0.00 in0.0 mm 0.00 in0.0 mm
09:30 AM 41.4°F5.2°C 36.6°F2.6°C 83% 2.0 mph SW3.2 kmh SW 5.0 mph8.0 kmh 29.52 in999.7 mb 0.00 in0.0 mm 0.00 in0.0 mm 0.00 in0.0 mm
09:15 AM 40.3°F4.6°C 35.8°F2.1°C 84% 2.0 mph SW3.2 kmh SW 10.0 mph16.1 kmh 29.52 in999.7 mb 0.00 in0.0 mm 0.00 in0.0 mm 0.00 in0.0 mm
09:00 AM 39.6°F4.2°C 35.5°F1.9°C 85% 2.0 mph SW3.2 kmh SW 8.0 mph12.9 kmh 29.52 in999.7 mb 0.00 in0.0 mm 0.00 in0.0 mm 0.00 in0.0 mm
08:45 AM 38.9°F3.8°C 34.8°F1.6°C 85% 1.0 mph SW1.6 kmh SW 6.0 mph9.7 kmh 29.53 in1000.0 mb 0.00 in0.0 mm 0.00 in0.0 mm 0.00 in0.0 mm
08:30 AM 38.3°F3.5°C 34.2°F1.2°C 85% 2.0 mph WSW3.2 kmh WSW 6.0 mph9.7 kmh 29.53 in1000.0 mb 0.00 in0.0 mm 0.00 in0.0 mm 0.00 in0.0 mm
08:15 AM 38.1°F3.4°C 34.0°F1.1°C 85% 1.0 mph WSW1.6 kmh WSW 5.0 mph8.0 kmh 29.53 in1000.0 mb 0.00 in0.0 mm 0.00 in0.0 mm 0.00 in0.0 mm
08:00 AM 38.0°F3.3°C 34.2°F1.2°C 86% 2.0 mph SW3.2 kmh SW 7.0 mph11.3 kmh 29.53 in1000.0 mb 0.00 in0.0 mm 0.00 in0.0 mm 0.00 in0.0 mm
07:45 AM 37.7°F3.2°C 33.9°F1.1°C 86% 2.0 mph WSW3.2 kmh WSW 8.0 mph12.9 kmh 29.53 in1000.0 mb 0.00 in0.0 mm 0.00 in0.0 mm 0.00 in0.0 mm
07:30 AM 37.8°F3.2°C 34.0°F1.1°C 86% 4.0 mph WSW6.4 kmh WSW 9.0 mph14.5 kmh 29.53 in1000.0 mb 0.00 in0.0 mm 0.00 in0.0 mm 0.00 in0.0 mm
07:15 AM 37.8°F3.2°C 34.0°F1.1°C 86% 2.0 mph WSW3.2 kmh WSW 7.0 mph11.3 kmh 29.53 in1000.0 mb 0.00 in0.0 mm 0.00 in0.0 mm 0.00 in0.0 mm
07:00 AM 37.9°F3.3°C 34.1°F1.2°C 86% 2.0 mph SW3.2 kmh SW 8.0 mph12.9 kmh 29.53 in1000.0 mb 0.00 in0.0 mm 0.00 in0.0 mm 0.00 in0.0 mm
06:45 AM 37.8°F3.2°C 34.0°F1.1°C 86% 1.0 mph WSW1.6 kmh WSW 8.0 mph12.9 kmh 29.54 in1000.3 mb 0.00 in0.0 mm 0.00 in0.0 mm 0.00 in0.0 mm
06:30 AM 37.7°F3.2°C 34.2°F1.2°C 87% 1.0 mph WSW1.6 kmh WSW 8.0 mph12.9 kmh 29.54 in1000.3 mb 0.00 in0.0 mm 0.00 in0.0 mm 0.00 in0.0 mm
06:15 AM 37.5°F3.1°C 34.0°F1.1°C 87% 1.0 mph WSW1.6 kmh WSW 8.0 mph12.9 kmh 29.54 in1000.3 mb 0.00 in0.0 mm 0.00 in0.0 mm 0.00 in0.0 mm
06:00 AM 37.2°F2.9°C 34.0°F1.1°C 88% 2.0 mph SW3.2 kmh SW 6.0 mph9.7 kmh 29.54 in1000.3 mb 0.00 in0.0 mm 0.00 in0.0 mm 0.00 in0.0 mm
05:45 AM 36.8°F2.7°C 33.6°F0.9°C 88% 1.0 mph WSW1.6 kmh WSW 6.0 mph9.7 kmh 29.54 in1000.3 mb 0.00 in0.0 mm 0.00 in0.0 mm 0.00 in0.0 mm
05:30 AM 36.7°F2.6°C 33.2°F0.7°C 87% Calm Calm 5.0 mph8.0 kmh 29.54 in1000.3 mb 0.00 in0.0 mm 0.00 in0.0 mm 0.00 in0.0 mm
05:15 AM 37.5°F3.1°C 33.7°F0.9°C 86% Calm Calm 6.0 mph9.7 kmh 29.54 in1000.3 mb 0.00 in0.0 mm 0.00 in0.0 mm 0.00 in0.0 mm
05:00 AM 38.3°F3.5°C 34.5°F1.4°C 86% Calm Calm 4.0 mph6.4 kmh 29.54 in1000.3 mb 0.00 in0.0 mm 0.00 in0.0 mm 0.00 in0.0 mm
04:45 AM 38.6°F3.7°C 34.8°F1.6°C 86% 3.0 mph WSW4.8 kmh WSW 7.0 mph11.3 kmh 29.55 in1000.7 mb 0.00 in0.0 mm 0.00 in0.0 mm 0.00 in0.0 mm
04:30 AM 38.0°F3.3°C 34.8°F1.6°C 88% 2.0 mph WSW3.2 kmh WSW 9.0 mph14.5 kmh 29.55 in1000.7 mb 0.00 in0.0 mm 0.00 in0.0 mm 0.00 in0.0 mm
04:15 AM 37.8°F3.2°C 34.3°F1.3°C 87% 1.0 mph WSW1.6 kmh WSW 6.0 mph9.7 kmh 29.55 in1000.7 mb 0.00 in0.0 mm 0.00 in0.0 mm 0.00 in0.0 mm
04:00 AM 38.5°F3.6°C 35.0°F1.7°C 87% 1.0 mph WSW1.6 kmh WSW 3.0 mph4.8 kmh 29.55 in1000.7 mb 0.00 in0.0 mm 0.00 in0.0 mm 0.00 in0.0 mm
03:30 AM 38.5°F3.6°C 35.5°F1.9°C 89% 2.0 mph WSW3.2 kmh WSW 8.0 mph12.9 kmh 29.55 in1000.7 mb 0.00 in0.0 mm 0.00 in0.0 mm 0.00 in0.0 mm
03:15 AM 37.6°F3.1°C 34.9°F1.6°C 90% 2.0 mph WSW3.2 kmh WSW 8.0 mph12.9 kmh 29.55 in1000.7 mb 0.00 in0.0 mm 0.00 in0.0 mm 0.00 in0.0 mm
03:00 AM 36.4°F2.4°C 33.5°F0.8°C 89% 1.0 mph SW1.6 kmh SW 3.0 mph4.8 kmh 29.55 in1000.7 mb 0.00 in0.0 mm 0.00 in0.0 mm 0.00 in0.0 mm
02:45 AM 37.2°F2.9°C 33.7°F0.9°C 87% Calm Calm 1.0 mph1.6 kmh 29.56 in1001.0 mb 0.00 in0.0 mm 0.00 in0.0 mm 0.00 in0.0 mm
02:30 AM 37.8°F3.2°C 34.0°F1.1°C 86% Calm Calm 2.0 mph3.2 kmh 29.56 in1001.0 mb 0.00 in0.0 mm 0.00 in0.0 mm 0.00 in0.0 mm
02:15 AM 38.7°F3.7°C 34.9°F1.6°C 86% 1.0 mph SW1.6 kmh SW 3.0 mph4.8 kmh 29.57 in1001.4 mb 0.00 in0.0 mm 0.00 in0.0 mm 0.00 in0.0 mm
02:00 AM 39.2°F4.0°C 35.1°F1.7°C 85% 1.0 mph SW1.6 kmh SW 4.0 mph6.4 kmh 29.57 in1001.4 mb 0.00 in0.0 mm 0.00 in0.0 mm 0.00 in0.0 mm
01:45 AM 40.1°F4.5°C 36.0°F2.2°C 85% 2.0 mph WSW3.2 kmh WSW 7.0 mph11.3 kmh 29.57 in1001.4 mb 0.00 in0.0 mm 0.00 in0.0 mm 0.00 in0.0 mm
01:30 AM 40.3°F4.6°C 36.1°F2.3°C 85% 2.0 mph WSW3.2 kmh WSW 8.0 mph12.9 kmh 29.57 in1001.4 mb 0.00 in0.0 mm 0.00 in0.0 mm 0.00 in0.0 mm
01:15 AM 40.7°F4.8°C 36.2°F2.3°C 84% 3.0 mph WSW4.8 kmh WSW 8.0 mph12.9 kmh 29.57 in1001.4 mb 0.00 in0.0 mm 0.00 in0.0 mm 0.00 in0.0 mm
01:00 AM 40.8°F4.9°C 36.3°F2.4°C 84% 3.0 mph WSW4.8 kmh WSW 12.0 mph19.3 kmh 29.57 in1001.4 mb 0.00 in0.0 mm 0.00 in0.0 mm 0.00 in0.0 mm
12:45 AM 41.3°F5.2°C 36.5°F2.5°C 83% 3.0 mph WSW4.8 kmh WSW 12.0 mph19.3 kmh 29.57 in1001.4 mb 0.00 in0.0 mm 0.00 in0.0 mm 0.00 in0.0 mm
12:30 AM 41.8°F5.4°C 37.0°F2.8°C 83% 4.0 mph WSW6.4 kmh WSW 12.0 mph19.3 kmh 29.57 in1001.4 mb 0.00 in0.0 mm 0.00 in0.0 mm 0.00 in0.0 mm
12:15 AM 42.0°F5.6°C 37.2°F2.9°C 83% 4.0 mph WSW6.4 kmh WSW 12.0 mph19.3 kmh 29.58 in1001.7 mb 0.00 in0.0 mm 0.00 in0.0 mm 0.00 in0.0 mm
12:00 AM 41.7°F5.4°C 36.9°F2.7°C 83% 3.0 mph WSW4.8 kmh WSW 12.0 mph19.3 kmh 29.58 in1001.7 mb 0.00 in0.0 mm 0.00 in0.0 mm 0.00 in0.0 mm